Time;durP1;ratioP1;P1;durP2;ratioP2;P2;SDS_P1;SDS_P2;PMS_P1;PMS_P2;Temp;Humidity;BMP_temperature;BMP_pressure;BME280_temperature;BME280_humidity;BME280_pressure;Samples;Min_cycle;Max_cycle;Signal;HPM_P1;HPM_P2
2023/06/24 00:02:17;;;;;;;150.63;145.30;;;15.20;99.90;;;;;;4928659;29;20253;-84
2023/06/24 00:04:43;;;;;;;166.53;160.77;;;15.30;99.90;;;;;;4913353;29;20242;-83
2023/06/24 00:07:09;;;;;;;155.83;149.83;;;15.30;99.90;;;;;;4928763;29;20683;-83
2023/06/24 00:09:35;;;;;;;172.60;165.83;;;15.40;99.90;;;;;;4897450;29;20241;-83
2023/06/24 00:12:03;;;;;;;158.90;153.50;;;15.40;99.90;;;;;;4929063;28;20195;-83
2023/06/24 00:14:28;;;;;;;163.80;157.97;;;15.50;99.90;;;;;;4929165;29;20193;-83
2023/06/24 00:16:56;;;;;;;166.93;161.33;;;15.50;99.90;;;;;;4928646;29;20218;-83
2023/06/24 00:19:24;;;;;;;153.50;148.03;;;15.50;99.90;;;;;;4913249;29;20313;-84
2023/06/24 00:21:53;;;;;;;155.90;150.70;;;15.40;99.90;;;;;;4929902;28;20695;-83
2023/06/24 00:24:25;;;;;;;150.90;145.53;;;15.20;99.90;;;;;;4913276;28;20221;-83
2023/06/24 00:26:55;;;;;;;163.93;157.43;;;14.90;99.90;;;;;;4929192;29;20210;-83
2023/06/24 00:29:21;;;;;;;154.60;149.37;;;14.90;99.90;;;;;;4928672;29;20332;-83
2023/06/24 00:31:47;;;;;;;152.60;147.40;;;14.90;99.90;;;;;;4912909;29;20642;-83
2023/06/24 00:34:13;;;;;;;150.33;145.10;;;14.90;99.90;;;;;;4929611;28;20324;-83
2023/06/24 00:36:39;;;;;;;157.97;152.20;;;15.00;99.90;;;;;;4929891;28;20218;-84
2023/06/24 00:39:05;;;;;;;169.87;164.07;;;15.10;99.90;;;;;;4912480;28;20724;-84
2023/06/24 00:41:33;;;;;;;152.90;147.63;;;15.10;99.90;;;;;;4929295;29;20182;-84
2023/06/24 00:43:59;;;;;;;156.57;151.17;;;15.20;99.90;;;;;;4929713;28;20225;-83
2023/06/24 00:46:26;;;;;;;154.10;148.70;;;15.20;99.90;;;;;;4896843;29;20308;-83
2023/06/24 00:48:53;;;;;;;166.77;160.93;;;15.20;99.90;;;;;;4929832;29;20851;-84
2023/06/24 00:51:21;;;;;;;161.97;156.57;;;15.20;99.90;;;;;;4948112;28;20364;-83
2023/06/24 00:53:47;;;;;;;159.20;153.83;;;15.30;99.90;;;;;;4901908;29;20241;-83
2023/06/24 00:56:16;;;;;;;164.70;159.03;;;15.30;99.90;;;;;;4916441;29;20237;-83
2023/06/24 00:58:43;;;;;;;158.50;153.00;;;15.30;99.90;;;;;;4916703;29;20687;-84
2023/06/24 01:01:10;;;;;;;157.23;151.90;;;15.30;99.90;;;;;;4932154;29;20308;-83
2023/06/24 01:03:37;;;;;;;168.07;162.30;;;15.30;99.90;;;;;;4931887;29;20827;-82
2023/06/24 01:06:03;;;;;;;168.03;162.17;;;15.30;99.90;;;;;;4900690;28;20204;-83
2023/06/24 01:08:29;;;;;;;153.67;148.07;;;15.30;99.90;;;;;;4932370;29;20221;-84
2023/06/24 01:10:54;;;;;;;165.20;159.23;;;15.30;99.90;;;;;;4900707;29;20627;-83
2023/06/24 01:13:22;;;;;;;161.70;156.27;;;15.30;99.90;;;;;;4932998;28;20228;-83
2023/06/24 01:15:48;;;;;;;165.93;160.07;;;15.30;99.90;;;;;;4933349;28;20248;-83
2023/06/24 01:18:38;;;;;;;161.27;155.90;;;15.30;99.90;;;;;;4931462;28;20182;-83
2023/06/24 01:21:10;;;;;;;137.73;132.90;;;15.20;99.90;;;;;;4932168;28;20209;-83
2023/06/24 01:24:13;;;;;;;161.23;155.47;;;15.30;99.90;;;;;;4932369;29;20234;-83
2023/06/24 01:27:30;;;;;;;144.17;139.33;;;15.30;99.90;;;;;;4947995;29;20209;-84
2023/06/24 01:30:13;;;;;;;158.63;153.57;;;15.30;99.90;;;;;;4876665;29;20726;-83
2023/06/24 01:32:45;;;;;;;147.57;142.23;;;15.30;99.90;;;;;;4926895;29;20202;-83
2023/06/24 01:35:25;;;;;;;151.37;145.97;;;15.30;99.90;;;;;;4931294;28;20228;-83
2023/06/24 01:37:52;;;;;;;151.43;146.07;;;15.30;99.90;;;;;;4947330;28;20232;-83
2023/06/24 01:40:23;;;;;;;153.97;148.53;;;15.20;99.90;;;;;;4932509;28;20233;-83
2023/06/24 01:42:49;;;;;;;155.13;149.60;;;15.20;99.90;;;;;;4931524;29;20214;-83
2023/06/24 01:45:19;;;;;;;158.67;153.20;;;15.20;99.90;;;;;;4932468;28;20187;-84
2023/06/24 01:47:53;;;;;;;153.73;147.60;;;15.20;99.90;;;;;;4933358;28;20322;-83
2023/06/24 01:50:22;;;;;;;159.20;153.90;;;15.30;99.90;;;;;;4931288;29;20233;-83
2023/06/24 01:52:52;;;;;;;153.30;148.20;;;15.20;99.90;;;;;;4932511;28;20380;-83
2023/06/24 01:55:20;;;;;;;157.37;152.27;;;15.20;99.90;;;;;;4931069;29;20222;-83
2023/06/24 01:57:49;;;;;;;154.33;149.17;;;15.30;99.90;;;;;;4931179;29;20312;-83
2023/06/24 02:00:16;;;;;;;163.10;157.47;;;15.30;99.90;;;;;;4929921;28;20263;-83
2023/06/24 02:02:43;;;;;;;153.47;148.20;;;15.30;99.90;;;;;;4931593;29;20257;-83
2023/06/24 02:05:11;;;;;;;160.23;154.33;;;15.30;99.90;;;;;;4931233;29;20229;-83
2023/06/24 02:07:38;;;;;;;155.73;150.27;;;15.30;99.90;;;;;;4931025;28;20297;-84
2023/06/24 02:10:05;;;;;;;155.53;150.27;;;15.20;99.90;;;;;;4930655;29;20233;-83
2023/06/24 02:12:32;;;;;;;155.80;150.43;;;15.10;99.90;;;;;;4915535;29;20222;-83
2023/06/24 02:14:59;;;;;;;147.27;142.00;;;15.10;99.90;;;;;;4915678;29;20238;-83
2023/06/24 02:17:29;;;;;;;157.47;152.03;;;15.10;99.90;;;;;;4932185;29;20234;-84
2023/06/24 02:19:56;;;;;;;159.37;153.80;;;15.10;99.90;;;;;;4931311;28;20597;-83
2023/06/24 02:22:23;;;;;;;142.07;136.63;;;15.10;99.90;;;;;;4931906;28;20226;-84
2023/06/24 02:24:50;;;;;;;155.60;150.13;;;15.10;99.90;;;;;;4946699;28;20213;-83
2023/06/24 02:27:17;;;;;;;151.17;145.87;;;15.10;99.90;;;;;;4931735;28;20191;-84
2023/06/24 02:29:43;;;;;;;155.03;149.30;;;15.10;99.90;;;;;;4899556;29;20781;-84
2023/06/24 02:32:09;;;;;;;147.10;142.00;;;15.10;99.90;;;;;;4930706;29;20317;-83
2023/06/24 02:34:35;;;;;;;151.50;146.17;;;15.00;99.90;;;;;;4931683;28;20232;-84
2023/06/24 02:37:01;;;;;;;161.17;155.70;;;15.00;99.90;;;;;;4930630;29;20297;-84
2023/06/24 02:39:27;;;;;;;135.70;130.77;;;15.00;99.90;;;;;;4914543;29;20714;-83
2023/06/24 02:41:53;;;;;;;135.17;130.33;;;15.00;99.90;;;;;;4931113;29;20189;-84
2023/06/24 02:44:19;;;;;;;152.67;147.63;;;15.00;99.90;;;;;;4914456;29;20217;-83
2023/06/24 02:46:46;;;;;;;146.53;141.63;;;15.00;99.90;;;;;;4930241;29;20240;-83
2023/06/24 02:49:15;;;;;;;148.07;142.77;;;15.00;99.90;;;;;;4945889;28;20229;-84
2023/06/24 02:51:42;;;;;;;151.90;146.77;;;15.00;99.90;;;;;;4929802;29;20383;-83
2023/06/24 02:54:09;;;;;;;139.87;134.80;;;15.00;99.90;;;;;;4913999;28;20206;-83
2023/06/24 02:56:41;;;;;;;154.40;148.97;;;15.00;99.90;;;;;;4931757;28;20277;-84
2023/06/24 02:59:07;;;;;;;131.20;126.33;;;15.00;99.90;;;;;;4929955;29;20308;-83
2023/06/24 03:01:38;;;;;;;142.33;137.20;;;15.00;99.90;;;;;;4929434;29;20762;-84
2023/06/24 03:04:04;;;;;;;137.27;132.17;;;14.90;99.90;;;;;;4929917;29;20225;-84
2023/06/24 03:06:32;;;;;;;137.77;133.00;;;14.90;99.90;;;;;;4913635;29;20249;-83
2023/06/24 03:08:58;;;;;;;143.43;138.33;;;14.90;99.90;;;;;;4930249;29;20209;-83
2023/06/24 03:11:25;;;;;;;140.50;135.53;;;14.90;99.90;;;;;;4945471;28;20248;-84
2023/06/24 03:13:51;;;;;;;141.53;136.63;;;14.90;99.90;;;;;;4914086;29;20253;-84
2023/06/24 03:16:17;;;;;;;137.53;132.07;;;15.00;99.90;;;;;;4929694;29;21283;-83
2023/06/24 03:18:43;;;;;;;137.93;133.17;;;15.00;99.90;;;;;;4929608;29;20221;-84
2023/06/24 03:21:12;;;;;;;145.67;140.80;;;15.00;99.90;;;;;;4930563;28;20236;-83
2023/06/24 03:23:39;;;;;;;136.70;132.00;;;14.90;99.90;;;;;;4929920;29;20270;-84
2023/06/24 03:26:07;;;;;;;144.77;139.87;;;14.90;99.90;;;;;;4898279;29;20222;-84
2023/06/24 03:28:33;;;;;;;141.50;135.90;;;14.90;99.90;;;;;;4929761;29;20284;-84
2023/06/24 03:31:02;;;;;;;133.27;128.67;;;14.80;99.90;;;;;;4913549;29;20234;-84
2023/06/24 03:33:27;;;;;;;133.10;128.50;;;14.90;99.90;;;;;;4913327;29;20229;-84
2023/06/24 03:35:54;;;;;;;137.70;132.77;;;14.90;99.90;;;;;;4930136;29;20245;-83
2023/06/24 03:38:21;;;;;;;142.63;137.73;;;14.90;99.90;;;;;;4913530;29;20232;-84
2023/06/24 03:40:47;;;;;;;139.20;134.47;;;14.90;99.90;;;;;;4897796;29;20310;-83
2023/06/24 03:43:12;;;;;;;135.73;131.00;;;15.00;99.90;;;;;;4929326;29;20675;-84
2023/06/24 03:45:38;;;;;;;127.23;122.57;;;15.00;99.90;;;;;;4912979;29;20230;-84
2023/06/24 03:48:04;;;;;;;149.73;144.47;;;15.10;99.90;;;;;;4928974;28;20186;-84
2023/06/24 03:50:30;;;;;;;146.03;140.70;;;15.10;99.90;;;;;;4913768;29;20266;-84
2023/06/24 03:52:56;;;;;;;140.93;136.17;;;15.10;99.90;;;;;;4928915;29;20238;-84
2023/06/24 03:55:21;;;;;;;139.37;134.70;;;15.10;99.90;;;;;;4913041;29;20664;-84
2023/06/24 03:57:47;;;;;;;134.27;129.83;;;15.10;99.90;;;;;;4928738;28;20691;-84
2023/06/24 04:00:17;;;;;;;128.80;124.07;;;15.10;99.90;;;;;;4928861;28;20226;-84
2023/06/24 04:02:45;;;;;;;144.03;139.10;;;15.20;99.90;;;;;;4929576;29;20234;-84
2023/06/24 04:05:11;;;;;;;144.20;139.33;;;15.20;99.90;;;;;;4928952;28;20233;-84
2023/06/24 04:07:36;;;;;;;133.97;128.93;;;15.30;99.90;;;;;;4928418;29;20765;-84
2023/06/24 04:10:10;;;;;;;139.10;134.23;;;15.30;99.90;;;;;;4928321;29;20279;-84
2023/06/24 04:12:36;;;;;;;153.10;147.87;;;15.50;99.90;;;;;;4928350;29;20281;-84
2023/06/24 04:15:05;;;;;;;161.30;155.80;;;15.60;99.90;;;;;;4928707;28;20190;-84
2023/06/24 04:17:31;;;;;;;162.50;157.13;;;15.70;99.90;;;;;;4928934;29;20686;-84
2023/06/24 04:19:58;;;;;;;156.70;151.13;;;15.80;99.90;;;;;;4897005;29;20265;-84
2023/06/24 04:22:25;;;;;;;146.60;141.50;;;15.90;99.90;;;;;;4928160;29;20234;-84
2023/06/24 04:24:50;;;;;;;158.17;152.63;;;16.00;99.90;;;;;;4929352;28;20687;-84
2023/06/24 04:27:16;;;;;;;150.87;145.47;;;16.00;99.90;;;;;;4928432;28;20196;-84
2023/06/24 04:29:42;;;;;;;159.37;153.67;;;16.00;99.90;;;;;;4928866;29;20295;-85
2023/06/24 04:32:08;;;;;;;147.63;142.57;;;16.00;99.90;;;;;;4914362;29;20262;-85
2023/06/24 04:34:34;;;;;;;172.77;167.03;;;16.00;99.90;;;;;;4912652;29;20217;-84
2023/06/24 04:37:00;;;;;;;159.57;154.20;;;16.10;99.90;;;;;;4912523;29;20226;-83
2023/06/24 04:39:25;;;;;;;164.10;158.90;;;16.20;99.90;;;;;;4912298;29;20336;-83
2023/06/24 04:41:51;;;;;;;157.90;152.20;;;16.30;99.90;;;;;;4929011;29;20550;-84
2023/06/24 04:44:17;;;;;;;160.87;155.03;;;16.40;99.90;;;;;;4928216;29;20696;-83
2023/06/24 04:46:45;;;;;;;153.73;148.63;;;16.50;99.90;;;;;;4928241;29;20237;-83
2023/06/24 04:49:11;;;;;;;168.57;163.23;;;16.70;99.90;;;;;;4897391;29;20240;-84
2023/06/24 04:51:37;;;;;;;157.53;152.33;;;16.80;99.90;;;;;;4928260;29;20225;-84
2023/06/24 04:54:03;;;;;;;175.67;169.77;;;16.90;99.90;;;;;;4928177;28;20832;-83
2023/06/24 04:56:29;;;;;;;164.30;157.67;;;17.00;99.90;;;;;;4929927;28;20175;-83
2023/06/24 04:58:55;;;;;;;162.40;156.73;;;17.20;99.90;;;;;;4928599;29;20241;-84
2023/06/24 05:01:22;;;;;;;144.77;139.83;;;17.20;99.90;;;;;;4912106;29;20222;-83
2023/06/24 05:03:48;;;;;;;134.00;129.27;;;17.40;99.90;;;;;;4929322;28;20237;-83
2023/06/24 05:06:13;;;;;;;140.40;135.40;;;17.50;99.90;;;;;;4912465;28;20233;-83
2023/06/24 05:08:39;;;;;;;139.80;135.00;;;17.70;99.90;;;;;;4896975;29;20526;-83
2023/06/24 05:11:05;;;;;;;126.63;121.93;;;17.90;99.90;;;;;;4928331;29;20257;-83
2023/06/24 05:13:31;;;;;;;133.50;128.40;;;18.30;99.90;;;;;;4927818;29;20305;-83
2023/06/24 05:15:56;;;;;;;130.00;125.13;;;18.80;99.90;;;;;;4912355;29;20296;-83
2023/06/24 05:18:22;;;;;;;110.37;106.23;;;20.20;99.90;;;;;;4927919;28;20598;-84
2023/06/24 05:20:48;;;;;;;94.17;90.60;;;22.00;99.90;;;;;;4928443;29;20768;-83
2023/06/24 05:23:14;;;;;;;99.27;95.70;;;22.70;99.90;;;;;;4928026;29;20297;-83
2023/06/24 05:25:39;;;;;;;84.70;81.00;;;22.50;99.90;;;;;;4927647;29;20586;-84
2023/06/24 05:28:05;;;;;;;83.40;80.10;;;22.50;99.90;;;;;;4927935;29;20647;-83
2023/06/24 05:30:31;;;;;;;74.50;71.47;;;21.90;99.90;;;;;;4911885;29;20234;-84
2023/06/24 05:32:57;;;;;;;72.23;68.63;;;21.60;99.90;;;;;;4897193;29;20699;-85
2023/06/24 05:35:22;;;;;;;67.03;64.20;;;21.10;99.90;;;;;;4914233;29;20305;-84
2023/06/24 05:37:48;;;;;;;76.43;73.30;;;20.90;99.90;;;;;;4931013;29;20494;-83
2023/06/24 05:40:14;;;;;;;77.57;74.53;;;20.80;99.90;;;;;;4933899;28;20715;-85
2023/06/24 05:42:40;;;;;;;74.53;71.63;;;21.00;99.90;;;;;;4931311;29;20800;-83
2023/06/24 05:45:06;;;;;;;77.97;74.97;;;21.00;99.90;;;;;;4899833;28;20193;-84
2023/06/24 05:47:32;;;;;;;75.77;72.60;;;21.00;99.90;;;;;;4931875;29;20174;-82
2023/06/24 05:49:58;;;;;;;82.87;79.20;;;21.00;99.90;;;;;;4915192;29;20238;-82
2023/06/24 05:52:24;;;;;;;80.70;77.57;;;21.10;99.90;;;;;;4915147;29;20236;-82
2023/06/24 05:54:50;;;;;;;82.23;78.83;;;21.20;99.90;;;;;;4931378;29;20221;-82
2023/06/24 05:57:16;;;;;;;76.83;73.73;;;21.20;99.90;;;;;;4931205;28;20182;-82
2023/06/24 05:59:42;;;;;;;78.27;75.13;;;21.20;99.90;;;;;;4915905;29;20190;-82
2023/06/24 06:02:08;;;;;;;71.10;68.17;;;21.20;99.90;;;;;;4930865;29;20771;-82
2023/06/24 06:04:34;;;;;;;70.37;67.53;;;21.40;99.90;;;;;;4914929;29;20232;-82
2023/06/24 06:06:59;;;;;;;63.20;60.30;;;21.50;99.90;;;;;;4915098;29;20234;-83
2023/06/24 06:09:25;;;;;;;62.60;59.67;;;21.70;99.90;;;;;;4914800;29;20285;-82
2023/06/24 06:11:51;;;;;;;68.77;65.73;;;21.90;99.90;;;;;;4931158;29;20186;-82
2023/06/24 06:14:16;;;;;;;60.00;57.43;;;22.10;99.90;;;;;;4915255;29;20234;-83
2023/06/24 06:16:42;;;;;;;55.70;53.00;;;22.30;99.90;;;;;;4914812;29;20222;-82
2023/06/24 06:19:08;;;;;;;54.27;51.80;;;22.70;99.90;;;;;;4932188;28;20221;-82
2023/06/24 06:21:36;;;;;;;49.07;46.87;;;23.00;99.90;;;;;;4930480;28;20225;-82
2023/06/24 06:24:01;;;;;;;46.27;44.03;;;23.30;99.90;;;;;;4931801;28;20217;-82
2023/06/24 06:26:27;;;;;;;41.38;39.40;;;23.60;99.90;;;;;;4915449;29;20222;-82
2023/06/24 06:28:53;;;;;;;45.72;43.55;;;23.50;99.90;;;;;;4931711;28;20249;-83
2023/06/24 06:31:19;;;;;;;45.70;43.42;;;23.50;99.90;;;;;;4930601;29;20252;-83
2023/06/24 06:33:44;;;;;;;44.03;42.10;;;23.10;99.90;;;;;;4899133;29;20289;-82
2023/06/24 06:36:10;;;;;;;41.60;39.80;;;23.00;99.90;;;;;;4930477;28;20191;-82
2023/06/24 06:38:36;;;;;;;42.20;40.30;;;22.90;99.90;;;;;;4914955;29;20326;-83
2023/06/24 06:41:02;;;;;;;42.25;40.33;;;22.90;99.90;;;;;;4929975;29;20225;-82
2023/06/24 06:43:27;;;;;;;45.25;43.15;;;22.50;99.90;;;;;;4929598;29;20237;-81
2023/06/24 06:45:53;;;;;;;41.83;39.90;;;22.50;99.90;;;;;;4929213;29;20218;-82
2023/06/24 06:48:19;;;;;;;42.90;41.10;;;22.70;99.90;;;;;;4929615;28;20225;-82
2023/06/24 06:50:45;;;;;;;42.40;40.67;;;22.50;99.90;;;;;;4898392;29;20577;-81
2023/06/24 06:53:11;;;;;;;44.67;42.63;;;22.40;99.90;;;;;;4929548;29;20777;-81
2023/06/24 06:55:40;;;;;;;45.60;43.50;;;22.30;99.90;;;;;;4929599;29;20232;-82
2023/06/24 06:58:05;;;;;;;43.08;40.90;;;22.30;99.90;;;;;;4914277;29;20232;-82
2023/06/24 07:00:33;;;;;;;45.63;43.35;;;22.30;99.90;;;;;;4929448;29;20289;-82
2023/06/24 07:02:59;;;;;;;46.07;44.13;;;22.30;99.90;;;;;;4929532;28;20237;-82
2023/06/24 07:05:25;;;;;;;44.20;42.20;;;22.40;99.90;;;;;;4929745;29;20269;-82
2023/06/24 07:07:51;;;;;;;49.30;47.13;;;22.50;99.90;;;;;;4929281;29;20234;-83
2023/06/24 07:10:19;;;;;;;45.92;44.13;;;22.70;99.90;;;;;;4897223;29;20230;-82
2023/06/24 07:12:46;;;;;;;45.25;43.20;;;22.60;99.90;;;;;;4930448;28;20232;-83
2023/06/24 07:15:11;;;;;;;40.57;38.67;;;22.50;99.90;;;;;;4929225;28;20595;-83
2023/06/24 07:17:37;;;;;;;46.53;44.17;;;22.60;99.90;;;;;;4913998;29;20190;-83
2023/06/24 07:20:03;;;;;;;43.17;41.23;;;22.80;99.90;;;;;;4929214;29;20698;-82
2023/06/24 07:22:30;;;;;;;44.83;42.72;;;22.70;99.90;;;;;;4928661;29;20225;-82
2023/06/24 07:24:57;;;;;;;77.50;74.75;;;22.60;99.90;;;;;;4930622;28;20730;-83
2023/06/24 07:27:23;;;;;;;41.42;39.63;;;22.60;99.90;;;;;;4928882;28;20241;-82
2023/06/24 07:29:48;;;;;;;38.97;37.17;;;22.70;99.90;;;;;;4913435;29;20288;-82
2023/06/24 07:32:14;;;;;;;37.30;35.65;;;23.00;99.90;;;;;;4928926;28;20241;-84
2023/06/24 07:34:42;;;;;;;39.15;37.55;;;23.20;99.90;;;;;;4928767;29;20222;-83
2023/06/24 07:37:10;;;;;;;37.83;35.97;;;23.30;99.90;;;;;;4912414;29;20217;-82
2023/06/24 07:39:38;;;;;;;35.20;33.40;;;23.60;99.90;;;;;;4929269;29;20231;-83
2023/06/24 07:42:04;;;;;;;38.45;36.58;;;23.50;99.90;;;;;;4928660;28;20377;-82
2023/06/24 07:44:30;;;;;;;37.53;35.92;;;23.60;99.90;;;;;;4929536;29;20272;-83
2023/06/24 07:46:55;;;;;;;36.60;34.22;;;23.70;99.90;;;;;;4913315;29;20789;-83
2023/06/24 07:49:21;;;;;;;35.35;33.47;;;24.00;99.90;;;;;;4945142;28;20310;-83
2023/06/24 07:51:47;;;;;;;34.67;33.25;;;24.60;99.90;;;;;;4897316;29;20785;-82
2023/06/24 07:54:12;;;;;;;34.85;33.30;;;25.20;99.90;;;;;;4929087;28;20193;-83
2023/06/24 07:56:38;;;;;;;33.17;31.85;;;25.80;99.90;;;;;;4897805;29;20193;-82
2023/06/24 07:59:04;;;;;;;32.45;30.95;;;26.10;99.90;;;;;;4928061;29;20285;-83
2023/06/24 08:01:29;;;;;;;33.33;31.73;;;26.00;99.90;;;;;;4928952;29;20369;-83
2023/06/24 08:03:55;;;;;;;32.13;30.63;;;25.80;99.90;;;;;;4928649;29;20312;-82
2023/06/24 08:06:21;;;;;;;33.05;31.77;;;25.90;99.90;;;;;;4913113;28;20726;-83
2023/06/24 08:08:47;;;;;;;33.22;31.65;;;26.00;99.90;;;;;;4929418;29;20624;-82
2023/06/24 08:11:13;;;;;;;35.63;34.05;;;26.10;99.90;;;;;;4912946;29;20249;-83
2023/06/24 08:13:39;;;;;;;33.40;31.95;;;26.30;99.90;;;;;;4930025;28;20226;-83
2023/06/24 08:16:05;;;;;;;33.15;31.75;;;26.10;99.90;;;;;;4930099;28;20301;-82
2023/06/24 08:18:31;;;;;;;31.88;30.48;;;26.60;99.90;;;;;;4929718;28;20301;-82
2023/06/24 08:20:57;;;;;;;29.27;27.60;;;26.90;99.90;;;;;;4930233;29;20210;-83
2023/06/24 08:23:22;;;;;;;28.13;26.77;;;27.70;99.90;;;;;;4928955;29;20233;-83
2023/06/24 08:25:48;;;;;;;25.13;23.88;;;28.50;99.90;;;;;;4928333;29;20249;-82
2023/06/24 08:28:14;;;;;;;22.05;21.05;;;29.60;99.90;;;;;;4928670;29;20381;-83
2023/06/24 08:30:40;;;;;;;20.70;19.50;;;29.80;99.90;;;;;;4928602;29;20313;-83
2023/06/24 08:33:05;;;;;;;15.52;14.68;;;31.40;99.90;;;;;;4929698;28;20229;-82
2023/06/24 08:35:31;;;;;;;14.43;13.57;;;33.10;99.90;;;;;;4928870;29;20193;-82
2023/06/24 08:37:57;;;;;;;13.48;12.60;;;33.60;99.90;;;;;;4928541;29;20217;-83
2023/06/24 08:40:23;;;;;;;14.48;13.57;;;34.10;99.90;;;;;;4896556;29;20237;-83
2023/06/24 08:42:48;;;;;;;16.55;15.55;;;35.20;99.90;;;;;;4928426;29;20256;-83
2023/06/24 08:45:14;;;;;;;18.70;17.55;;;34.80;99.90;;;;;;4912743;28;20186;-83
2023/06/24 08:47:41;;;;;;;19.27;18.17;;;35.40;99.90;;;;;;4913203;29;20182;-83
2023/06/24 08:50:14;;;;;;;15.02;14.13;;;36.10;99.90;;;;;;4927976;29;20584;-83
2023/06/24 08:52:45;;;;;;;19.23;18.08;;;35.10;99.90;;;;;;4928144;29;20229;-83
2023/06/24 08:55:16;;;;;;;18.60;17.63;;;35.50;99.90;;;;;;4944396;28;20232;-83
2023/06/24 08:57:41;;;;;;;19.83;18.52;;;34.50;99.90;;;;;;4929348;28;20320;-83
2023/06/24 09:00:11;;;;;;;21.17;20.00;;;34.80;99.90;;;;;;4928496;28;20650;-83
2023/06/24 09:02:38;;;;;;;21.52;20.33;;;34.40;99.90;;;;;;4913283;29;20236;-83
2023/06/24 09:05:07;;;;;;;7.72;7.13;;;35.00;99.90;;;;;;4912493;29;20221;-82
2023/06/24 09:07:33;;;;;;;7.95;7.13;;;35.10;99.90;;;;;;4927900;29;20217;-83
2023/06/24 09:10:03;;;;;;;9.07;8.18;;;35.10;99.90;;;;;;4914281;29;20796;-82
2023/06/24 09:12:32;;;;;;;8.02;7.13;;;34.50;99.90;;;;;;4932057;29;20596;-83
2023/06/24 09:14:58;;;;;;;7.68;7.03;;;35.10;99.90;;;;;;4934037;29;20178;-83
2023/06/24 09:17:24;;;;;;;8.35;7.53;;;35.30;99.90;;;;;;4932209;29;20345;-83
2023/06/24 09:19:51;;;;;;;9.60;8.70;;;34.00;99.90;;;;;;4931940;29;20257;-83
2023/06/24 09:22:18;;;;;;;8.02;6.82;;;34.20;99.90;;;;;;4931523;29;20222;-82
2023/06/24 09:24:48;;;;;;;9.68;7.80;;;34.30;99.90;;;;;;4931756;29;20249;-83
2023/06/24 09:27:15;;;;;;;7.80;7.15;;;34.40;99.90;;;;;;4932814;28;20193;-82
2023/06/24 09:29:42;;;;;;;13.85;7.80;;;35.30;99.90;;;;;;4931944;29;20218;-83
2023/06/24 09:32:08;;;;;;;7.70;7.20;;;35.90;99.90;;;;;;4915970;29;20259;-86
2023/06/24 09:34:35;;;;;;;8.57;7.88;;;35.60;99.90;;;;;;4930673;29;20237;-84
2023/06/24 09:37:01;;;;;;;8.77;7.93;;;34.40;99.90;;;;;;4931268;29;20222;-83
2023/06/24 09:39:30;;;;;;;8.32;7.65;;;35.10;99.90;;;;;;4931406;29;20306;-83
2023/06/24 09:42:00;;;;;;;6.75;6.20;;;34.30;99.90;;;;;;4933117;29;20601;-83
2023/06/24 09:44:27;;;;;;;8.95;8.15;;;34.60;99.90;;;;;;4947775;29;20218;-84
2023/06/24 09:46:54;;;;;;;10.65;9.48;;;34.00;99.90;;;;;;4930945;28;20213;-84
2023/06/24 09:49:20;;;;;;;10.52;9.82;;;33.30;99.90;;;;;;4931341;29;20637;-85
2023/06/24 09:51:47;;;;;;;9.77;8.93;;;34.00;99.90;;;;;;4931284;29;20218;-83
2023/06/24 09:54:14;;;;;;;9.10;8.43;;;34.60;99.90;;;;;;4931130;28;20772;-84
2023/06/24 09:56:45;;;;;;;10.20;9.40;;;34.50;99.90;;;;;;4931981;29;20170;-83
2023/06/24 09:59:13;;;;;;;9.23;8.43;;;34.30;99.90;;;;;;4932283;28;20230;-84
2023/06/24 10:01:40;;;;;;;9.02;8.52;;;34.40;99.90;;;;;;4930909;29;20279;-84
2023/06/24 10:04:08;;;;;;;8.95;8.40;;;34.70;99.90;;;;;;4931983;28;20246;-83
2023/06/24 10:06:34;;;;;;;10.15;9.40;;;34.60;99.90;;;;;;4930889;29;20807;-84
2023/06/24 10:09:01;;;;;;;10.55;9.68;;;34.60;99.90;;;;;;4930958;28;20273;-84
2023/06/24 10:11:30;;;;;;;8.50;7.93;;;34.20;99.90;;;;;;4932669;29;20644;-85
2023/06/24 10:13:56;;;;;;;9.15;8.43;;;34.60;99.90;;;;;;4914817;29;20246;-84
2023/06/24 10:16:22;;;;;;;9.90;9.02;;;34.90;99.90;;;;;;4931159;29;20636;-84
2023/06/24 10:18:49;;;;;;;9.77;8.98;;;34.50;99.90;;;;;;4930459;29;20822;-84
2023/06/24 10:21:16;;;;;;;10.43;9.70;;;33.20;99.90;;;;;;4898296;28;20199;-84
2023/06/24 10:23:42;;;;;;;9.70;8.93;;;32.80;99.90;;;;;;4931121;29;20257;-84
2023/06/24 10:26:10;;;;;;;9.73;9.13;;;33.70;99.90;;;;;;4931662;28;20242;-84
2023/06/24 10:29:05;;;;;;;9.23;7.95;;;33.90;99.90;;;;;;4930461;29;20257;-83
2023/06/24 10:31:40;;;;;;;8.88;8.27;;;33.90;99.90;;;;;;4929343;28;20642;-84
2023/06/24 10:34:32;;;;;;;8.48;7.70;;;33.60;99.90;;;;;;4930121;29;20228;-84
2023/06/24 10:37:17;;;;;;;7.78;7.18;;;33.20;99.90;;;;;;4930269;28;20210;-83
2023/06/24 10:39:57;;;;;;;7.85;7.35;;;32.90;99.90;;;;;;4931411;28;20238;-84
2023/06/24 10:42:44;;;;;;;8.25;7.65;;;33.20;99.90;;;;;;4914395;28;20692;-83
2023/06/24 10:45:14;;;;;;;9.07;8.57;;;32.70;99.90;;;;;;4931301;28;20186;-83
2023/06/24 10:47:56;;;;;;;10.23;9.52;;;32.20;99.90;;;;;;4931855;29;20178;-85
2023/06/24 10:50:23;;;;;;;9.68;9.07;;;32.60;99.90;;;;;;4930413;29;20226;-83
2023/06/24 10:52:57;;;;;;;10.65;9.63;;;33.30;99.90;;;;;;4914676;29;20264;-84
2023/06/24 10:55:25;;;;;;;10.18;9.32;;;31.70;99.90;;;;;;4930211;29;20253;-83
2023/06/24 10:57:51;;;;;;;11.73;10.82;;;31.70;99.90;;;;;;4931352;28;20229;-83
2023/06/24 11:00:17;;;;;;;10.05;9.25;;;30.90;99.90;;;;;;4930153;28;20190;-83
2023/06/24 11:02:44;;;;;;;12.90;11.77;;;29.60;99.90;;;;;;4930473;29;20238;-83
2023/06/24 11:05:09;;;;;;;10.95;10.20;;;29.70;99.90;;;;;;4930030;29;20695;-83
2023/06/24 11:07:37;;;;;;;15.15;14.38;;;29.90;99.90;;;;;;4929965;29;20249;-84
2023/06/24 11:10:06;;;;;;;14.07;13.23;;;29.40;99.90;;;;;;4929649;29;20243;-84
2023/06/24 11:12:34;;;;;;;11.25;10.55;;;29.10;99.90;;;;;;4931069;28;20222;-83
2023/06/24 11:15:01;;;;;;;9.25;8.45;;;28.60;99.90;;;;;;4930956;28;20221;-84
2023/06/24 11:17:28;;;;;;;8.93;8.10;;;28.40;99.90;;;;;;4914654;29;20190;-84
2023/06/24 11:19:54;;;;;;;8.20;7.50;;;28.30;99.90;;;;;;4929599;29;20228;-83
2023/06/24 11:22:21;;;;;;;7.95;7.45;;;28.70;99.90;;;;;;4929725;29;20803;-82
2023/06/24 11:24:46;;;;;;;7.78;7.18;;;28.80;99.90;;;;;;4913564;29;20321;-83
2023/06/24 11:27:15;;;;;;;8.27;6.72;;;28.80;99.90;;;;;;4929683;28;20265;-83
2023/06/24 11:29:41;;;;;;;7.80;6.93;;;28.80;99.90;;;;;;4929907;29;20201;-83
2023/06/24 11:32:08;;;;;;;6.13;5.72;;;28.30;99.90;;;;;;4898084;29;20233;-83
2023/06/24 11:34:38;;;;;;;11.15;10.45;;;28.30;99.90;;;;;;4929322;29;20221;-83
2023/06/24 11:37:14;;;;;;;6.78;6.28;;;28.20;99.90;;;;;;4945321;28;20221;-83
2023/06/24 11:39:40;;;;;;;7.30;6.82;;;27.90;99.90;;;;;;4929112;29;20276;-83
2023/06/24 11:42:10;;;;;;;7.32;6.72;;;28.00;99.90;;;;;;4913337;28;20178;-85
2023/06/24 11:44:43;;;;;;;7.07;6.40;;;28.10;99.90;;;;;;4929779;29;20412;-82
2023/06/24 11:47:10;;;;;;;7.85;7.35;;;28.00;99.90;;;;;;4929115;29;20238;-83
2023/06/24 11:49:55;;;;;;;8.10;7.45;;;27.90;99.90;;;;;;4929111;29;20260;-83
2023/06/24 11:52:52;;;;;;;8.90;8.20;;;27.80;99.90;;;;;;4929020;29;20233;-82
2023/06/24 11:55:17;;;;;;;9.63;9.10;;;27.40;99.90;;;;;;4929100;28;20217;-84
2023/06/24 11:57:48;;;;;;;7.43;6.72;;;27.20;99.90;;;;;;4929041;29;20567;-83
2023/06/24 12:00:14;;;;;;;7.95;7.35;;;27.20;99.90;;;;;;4929851;28;20190;-82
2023/06/24 12:02:40;;;;;;;9.68;9.07;;;27.20;99.90;;;;;;4929295;29;20230;-84
2023/06/24 12:05:06;;;;;;;10.82;9.82;;;27.20;99.90;;;;;;4912969;29;20856;-83
2023/06/24 12:07:32;;;;;;;10.23;9.70;;;27.60;99.90;;;;;;4897428;29;20222;-83
2023/06/24 12:09:58;;;;;;;8.00;7.35;;;27.60;99.90;;;;;;4928391;29;20253;-83
2023/06/24 12:12:23;;;;;;;9.40;8.70;;;27.50;99.90;;;;;;4928836;29;20230;-83
2023/06/24 12:14:49;;;;;;;9.55;8.85;;;27.40;99.90;;;;;;4913534;29;20186;-83
2023/06/24 12:17:15;;;;;;;9.30;8.60;;;27.30;99.90;;;;;;4897385;29;20699;-83
2023/06/24 12:19:42;;;;;;;9.73;9.05;;;27.40;99.90;;;;;;4928528;29;20750;-83
2023/06/24 12:22:07;;;;;;;8.55;8.02;;;27.50;99.90;;;;;;4912968;29;20220;-84
2023/06/24 12:24:34;;;;;;;9.40;8.55;;;27.60;99.90;;;;;;4929595;28;20847;-83
2023/06/24 12:27:00;;;;;;;9.75;9.05;;;27.40;99.90;;;;;;4928430;28;20192;-83